Agonistis — SVBC3 — position and weather

sailwx.info

Track history (hours):
 
Tides and Currents Weather Stations Pressure Air Temp Water Temp Dewpoint Dewpoint Depression Visibility Wind Speed Wind Dir Waves Ship Positions

Agonistis

Last reported at 2015-Feb-20 10:23 UTC. Time now 2015-Apr-28 10:25 UTC.
Position N 37°32' E 023°46'.
Warning: this ship's position is months out of date.

Length 196 m; draft 12.4 m.

Type: Cargo ship. MMSI: 241048000.

Date/timePositionNaut miles runAvg speedWind from/ knotsBaromVisibWave heightAir tempDewpointWater temp
2015-Feb-20 10:23N 37°32' E 023°46'1011.5
2015-Feb-20 09:33N 37°41' E 023°42'1111.5
2015-Feb-20 08:33N 37°51' E 023°35'4 3.6
2015-Feb-20 07:32N 37°53' E 023°32'0 0.1
2015-Feb-20 06:32N 37°53' E 023°32'0 0.1
2015-Feb-20 05:32N 37°53' E 023°32'0 0.1
2015-Feb-20 04:32N 37°53' E 023°32'0 0.1
2015-Feb-20 03:32N 37°53' E 023°32'0 0.0
2015-Feb-20 02:29N 37°53' E 023°32'0 0.0
2015-Feb-20 01:29N 37°53' E 023°32'0 0.0
2015-Feb-20 00:29N 37°53' E 023°32'0 0.0
2015-Feb-19 23:32N 37°53' E 023°32'0 0.0
2015-Feb-19 22:32N 37°53' E 023°32'0 0.0
2015-Feb-19 21:32N 37°53' E 023°32'0 0.0
2015-Feb-19 20:32N 37°53' E 023°32'0 0.0
2015-Feb-19 19:32N 37°53' E 023°32'0 0.1
2015-Feb-19 18:29N 37°53' E 023°32'0 0.0
2015-Feb-19 17:32N 37°53' E 023°32'0 0.0
2015-Feb-19 16:32N 37°53' E 023°32'0 0.0
2015-Feb-19 15:32N 37°53' E 023°32'0 0.0
2015-Feb-19 14:32N 37°53' E 023°32'0 0.0
2015-Feb-19 13:32N 37°53' E 023°32'0 0.0
2015-Feb-19 12:32N 37°53' E 023°32'0 0.0
2015-Feb-19 11:32N 37°53' E 023°32'0 0.0
2015-Feb-19 10:32N 37°53' E 023°32'0 0.0
2015-Feb-19 09:32N 37°53' E 023°32'0 0.0
2015-Feb-19 08:33N 37°53' E 023°32'1 0.5
2015-Feb-19 07:33N 37°53' E 023°32'8 7.6
2015-Feb-19 06:33N 37°49' E 023°41'1111.3
2015-Feb-19 05:33N 37°38' E 023°45'1111.3
2015-Feb-19 04:33N 37°27' E 023°43'443 8.9
2015-Feb-17 02:33N 36°25' E 014°34'10 9.7
2015-Feb-17 01:33N 36°27' E 014°22'10 9.6
2015-Feb-17 00:33N 36°29' E 014°11'10 9.8
2015-Feb-16 23:33N 36°32' E 013°59'1010.0
2015-Feb-16 22:33N 36°35' E 013°47'  
2015-Feb-13 09:33N 35°59' W 005°19'11010.6
2015-Feb-12 23:08N 36°10' W 007°34'610.9
2015-Feb-12 22:33N 36°12' W 007°42'1111.0
2015-Feb-12 21:33N 36°15' W 007°55'117 9.5
2015-Feb-12 09:16N 37°31' W 009°46'810.9
2015-Feb-12 08:30N 37°39' W 009°49'2410.9
2015-Feb-12 06:15N 38°03' W 009°56'811.2
2015-Feb-12 05:32N 38°11' W 009°58'1111.5
2015-Feb-12 04:33N 38°22' W 010°02'1111.2
2015-Feb-12 03:33N 38°33' W 010°05'1111.1
2015-Feb-12 02:33N 38°44' W 010°07'1110.8
2015-Feb-12 01:33N 38°54' W 010°07'1111.0
2015-Feb-12 00:33N 39°05' W 010°07'1111.0
2015-Feb-11 23:33N 39°16' W 010°07'  
Track history (hours):
 
Tides and Currents Weather Stations Pressure Air Temp Water Temp Dewpoint Dewpoint Depression Visibility Wind Speed Wind Dir Waves Ship Positions

Agonistis

Last reported at 2015-Feb-20 10:23 UTC. Time now 2015-Apr-28 10:25 UTC.
Position N 37°32' E 023°46'.
Warning: this ship's position is months out of date.

Length 196 m; draft 12.4 m.

Type: Cargo ship. MMSI: 241048000.

Date/timePositionNaut miles runAvg speedWind from/ knotsBaromVisibWave heightAir tempDewpointWater temp
2015-Feb-20 10:23N 37°32' E 023°46'1011.5
2015-Feb-20 09:33N 37°41' E 023°42'1111.5
2015-Feb-20 08:33N 37°51' E 023°35'4 3.6
2015-Feb-20 07:32N 37°53' E 023°32'0 0.1
2015-Feb-20 06:32N 37°53' E 023°32'0 0.1
2015-Feb-20 05:32N 37°53' E 023°32'0 0.1
2015-Feb-20 04:32N 37°53' E 023°32'0 0.1
2015-Feb-20 03:32N 37°53' E 023°32'0 0.0
2015-Feb-20 02:29N 37°53' E 023°32'0 0.0
2015-Feb-20 01:29N 37°53' E 023°32'0 0.0
2015-Feb-20 00:29N 37°53' E 023°32'0 0.0
2015-Feb-19 23:32N 37°53' E 023°32'0 0.0
2015-Feb-19 22:32N 37°53' E 023°32'0 0.0
2015-Feb-19 21:32N 37°53' E 023°32'0 0.0
2015-Feb-19 20:32N 37°53' E 023°32'0 0.0
2015-Feb-19 19:32N 37°53' E 023°32'0 0.1
2015-Feb-19 18:29N 37°53' E 023°32'0 0.0
2015-Feb-19 17:32N 37°53' E 023°32'0 0.0
2015-Feb-19 16:32N 37°53' E 023°32'0 0.0
2015-Feb-19 15:32N 37°53' E 023°32'0 0.0
2015-Feb-19 14:32N 37°53' E 023°32'0 0.0
2015-Feb-19 13:32N 37°53' E 023°32'0 0.0
2015-Feb-19 12:32N 37°53' E 023°32'0 0.0
2015-Feb-19 11:32N 37°53' E 023°32'0 0.0
2015-Feb-19 10:32N 37°53' E 023°32'0 0.0
2015-Feb-19 09:32N 37°53' E 023°32'0 0.0
2015-Feb-19 08:33N 37°53' E 023°32'1 0.5
2015-Feb-19 07:33N 37°53' E 023°32'8 7.6
2015-Feb-19 06:33N 37°49' E 023°41'1111.3
2015-Feb-19 05:33N 37°38' E 023°45'1111.3
2015-Feb-19 04:33N 37°27' E 023°43'443 8.9
2015-Feb-17 02:33N 36°25' E 014°34'10 9.7
2015-Feb-17 01:33N 36°27' E 014°22'10 9.6
2015-Feb-17 00:33N 36°29' E 014°11'10 9.8
2015-Feb-16 23:33N 36°32' E 013°59'1010.0
2015-Feb-16 22:33N 36°35' E 013°47'  
2015-Feb-13 09:33N 35°59' W 005°19'11010.6
2015-Feb-12 23:08N 36°10' W 007°34'610.9
2015-Feb-12 22:33N 36°12' W 007°42'1111.0
2015-Feb-12 21:33N 36°15' W 007°55'117 9.5
2015-Feb-12 09:16N 37°31' W 009°46'810.9
2015-Feb-12 08:30N 37°39' W 009°49'2410.9
2015-Feb-12 06:15N 38°03' W 009°56'811.2
2015-Feb-12 05:32N 38°11' W 009°58'1111.5
2015-Feb-12 04:33N 38°22' W 010°02'1111.2
2015-Feb-12 03:33N 38°33' W 010°05'1111.1
2015-Feb-12 02:33N 38°44' W 010°07'1110.8
2015-Feb-12 01:33N 38°54' W 010°07'1111.0
2015-Feb-12 00:33N 39°05' W 010°07'1111.0
2015-Feb-11 23:33N 39°16' W 010°07'  

Dump ship's entire track history